This is the latest recevied weather packets stored in our database for station/object K4SHP-16. If no packets are shown the sender has not sent any weather packets the latest 10 day(s).
| Time | Temp. | Humidity | Pressure | Rain* | Wind** | Luminosity | Snow |
|---|---|---|---|---|---|---|---|
| 1777339084 | 12.78° C | 86% | 1023.7 hPa | 0 mm | - | - | - |
| 1777337644 | 13.33° C | 84% | 1023.3 hPa | 0 mm | - | - | - |
| 1777337104 | 13.89° C | 83% | 1023.3 hPa | 0 mm | - | - | - |
| 1777334944 | 16.11° C | 74% | 1022.4 hPa | 0 mm | - | - | - |
| 1777331884 | 18.89° C | 67% | 1022.2 hPa | 0 mm | - | - | - |
| 1777327744 | 20.56° C | 61% | 1021.7 hPa | 0 mm | - | - | - |
| 1777325245 | 21.11° C | 60% | 1021.7 hPa | 0 mm | - | - | - |
| 1777324144 | 21.11° C | 59% | 1021.7 hPa | 0 mm | - | - | - |
| 1777322164 | 20.56° C | 62% | 1021.7 hPa | 0 mm | - | - | - |
| 1777316044 | 19.44° C | 63% | 1022.5 hPa | 0 mm | - | - | - |
| 1777313344 | 18.89° C | 65% | 1022.8 hPa | 0 mm | - | - | - |
| 1777312804 | 18.89° C | 66% | 1023 hPa | 0 mm | - | - | - |
| 1777311364 | 17.78° C | 67% | 1022.9 hPa | 0 mm | - | - | - |
| 1777305604 | 15° C | 75% | 1023.5 hPa | 0 mm | - | - | - |
| 1777302544 | 13.89° C | 78% | 1023.6 hPa | 0 mm | - | - | - |
| 1777302004 | 13.33° C | 78% | 1023.6 hPa | 0 mm | - | - | - |
| 1777301644 | 13.33° C | 80% | 1023.7 hPa | 0 mm | - | - | - |
| 1777299484 | 12.78° C | 82% | 1023.7 hPa | 0 mm | - | - | - |
| 1777295344 | 12.22° C | 84% | 1023.3 hPa | 0 mm | - | - | - |
| 1777293385 | 11.67° C | 84% | 1023.3 hPa | 0 mm | - | - | - |
| 1777292284 | 11.67° C | 84% | 1023.2 hPa | 0 mm | - | - | - |
| 1777291204 | 11.67° C | 86% | 1023.1 hPa | 0 mm | - | - | - |
| 1777290304 | 11.67° C | 86% | 1022.9 hPa | 0 mm | - | - | - |
| 1777284544 | 11.67° C | 87% | 1021.1 hPa | 0 mm | - | - | - |
| 1777280944 | 11.67° C | 85% | 1020.4 hPa | 0 mm | - | - | - |
* Rain latest hour (hover to see other rain measurements)
** Current wind speed in m/s (hover to see current wind gust speed)